sensor_id;sensor_type;location;lat;lon;timestamp;P1;durP1;ratioP1;P2;durP2;ratioP2
31182;SDS011;17813;0.000;0.000;2022-07-22T00:00:59;4.50;;;4.03;;
31182;SDS011;17813;0.000;0.000;2022-07-22T00:03:26;8.30;;;3.90;;
31182;SDS011;17813;0.000;0.000;2022-07-22T00:05:52;5.97;;;3.90;;
31182;SDS011;17813;0.000;0.000;2022-07-22T00:08:19;4.60;;;4.10;;
31182;SDS011;17813;0.000;0.000;2022-07-22T00:10:46;4.23;;;3.87;;
31182;SDS011;17813;0.000;0.000;2022-07-22T00:13:13;4.70;;;4.30;;
31182;SDS011;17813;0.000;0.000;2022-07-22T00:15:40;5.43;;;3.90;;
31182;SDS011;17813;0.000;0.000;2022-07-22T00:18:07;4.10;;;3.70;;
31182;SDS011;17813;0.000;0.000;2022-07-22T00:20:35;4.60;;;4.20;;
31182;SDS011;17813;0.000;0.000;2022-07-22T00:23:03;5.47;;;4.20;;
31182;SDS011;17813;0.000;0.000;2022-07-22T00:25:30;4.73;;;3.97;;
31182;SDS011;17813;0.000;0.000;2022-07-22T00:27:57;7.77;;;4.13;;
31182;SDS011;17813;0.000;0.000;2022-07-22T00:30:24;6.90;;;4.10;;
31182;SDS011;17813;0.000;0.000;2022-07-22T00:32:51;5.27;;;4.20;;
31182;SDS011;17813;0.000;0.000;2022-07-22T00:35:18;4.53;;;3.93;;
31182;SDS011;17813;0.000;0.000;2022-07-22T00:37:44;4.37;;;3.97;;
31182;SDS011;17813;0.000;0.000;2022-07-22T00:40:13;7.90;;;4.30;;
31182;SDS011;17813;0.000;0.000;2022-07-22T00:42:40;5.03;;;4.17;;
31182;SDS011;17813;0.000;0.000;2022-07-22T00:45:07;4.97;;;4.43;;
31182;SDS011;17813;0.000;0.000;2022-07-22T00:47:35;8.73;;;4.47;;
31182;SDS011;17813;0.000;0.000;2022-07-22T00:50:02;4.60;;;4.20;;
31182;SDS011;17813;0.000;0.000;2022-07-22T00:52:30;5.30;;;4.40;;
31182;SDS011;17813;0.000;0.000;2022-07-22T00:54:59;4.37;;;3.97;;
31182;SDS011;17813;0.000;0.000;2022-07-22T00:57:27;4.43;;;4.00;;
31182;SDS011;17813;0.000;0.000;2022-07-22T00:59:54;4.97;;;4.10;;
31182;SDS011;17813;0.000;0.000;2022-07-22T01:02:21;4.87;;;4.43;;
31182;SDS011;17813;0.000;0.000;2022-07-22T01:04:49;5.40;;;4.80;;
31182;SDS011;17813;0.000;0.000;2022-07-22T01:07:16;4.77;;;4.30;;
31182;SDS011;17813;0.000;0.000;2022-07-22T01:09:46;4.53;;;4.10;;
31182;SDS011;17813;0.000;0.000;2022-07-22T01:12:13;4.87;;;4.37;;
31182;SDS011;17813;0.000;0.000;2022-07-22T01:14:41;5.10;;;4.60;;
31182;SDS011;17813;0.000;0.000;2022-07-22T01:17:08;5.73;;;4.40;;
31182;SDS011;17813;0.000;0.000;2022-07-22T01:19:36;4.70;;;4.20;;
31182;SDS011;17813;0.000;0.000;2022-07-22T01:22:04;4.83;;;4.37;;
31182;SDS011;17813;0.000;0.000;2022-07-22T01:24:31;5.03;;;4.30;;
31182;SDS011;17813;0.000;0.000;2022-07-22T01:26:59;4.70;;;4.30;;
31182;SDS011;17813;0.000;0.000;2022-07-22T01:29:26;4.60;;;4.20;;
31182;SDS011;17813;0.000;0.000;2022-07-22T01:31:53;5.07;;;4.40;;
31182;SDS011;17813;0.000;0.000;2022-07-22T01:34:20;5.43;;;4.23;;
31182;SDS011;17813;0.000;0.000;2022-07-22T01:36:47;6.80;;;4.60;;
31182;SDS011;17813;0.000;0.000;2022-07-22T01:39:14;5.43;;;4.77;;
31182;SDS011;17813;0.000;0.000;2022-07-22T01:41:42;6.27;;;4.20;;
31182;SDS011;17813;0.000;0.000;2022-07-22T01:44:09;5.77;;;4.70;;
31182;SDS011;17813;0.000;0.000;2022-07-22T01:46:39;4.90;;;4.50;;
31182;SDS011;17813;0.000;0.000;2022-07-22T01:49:06;4.60;;;4.20;;
31182;SDS011;17813;0.000;0.000;2022-07-22T01:51:33;5.37;;;4.37;;
31182;SDS011;17813;0.000;0.000;2022-07-22T01:54:00;6.03;;;4.93;;
31182;SDS011;17813;0.000;0.000;2022-07-22T01:56:28;5.03;;;4.63;;
31182;SDS011;17813;0.000;0.000;2022-07-22T01:58:55;4.93;;;4.50;;
31182;SDS011;17813;0.000;0.000;2022-07-22T02:01:22;5.13;;;4.60;;
31182;SDS011;17813;0.000;0.000;2022-07-22T02:03:50;5.73;;;4.40;;
31182;SDS011;17813;0.000;0.000;2022-07-22T02:06:18;7.03;;;4.70;;
31182;SDS011;17813;0.000;0.000;2022-07-22T02:08:46;5.33;;;4.43;;
31182;SDS011;17813;0.000;0.000;2022-07-22T02:11:13;4.80;;;4.40;;
31182;SDS011;17813;0.000;0.000;2022-07-22T02:13:39;4.70;;;4.30;;
31182;SDS011;17813;0.000;0.000;2022-07-22T02:16:07;4.90;;;4.40;;
31182;SDS011;17813;0.000;0.000;2022-07-22T02:18:34;6.07;;;4.70;;
31182;SDS011;17813;0.000;0.000;2022-07-22T02:21:00;4.70;;;4.27;;
31182;SDS011;17813;0.000;0.000;2022-07-22T02:23:27;5.93;;;5.10;;
31182;SDS011;17813;0.000;0.000;2022-07-22T02:25:54;6.03;;;4.60;;
31182;SDS011;17813;0.000;0.000;2022-07-22T02:28:22;5.47;;;4.80;;
31182;SDS011;17813;0.000;0.000;2022-07-22T02:30:49;5.70;;;4.87;;
31182;SDS011;17813;0.000;0.000;2022-07-22T02:33:16;5.80;;;4.60;;
31182;SDS011;17813;0.000;0.000;2022-07-22T02:35:43;6.70;;;5.40;;
31182;SDS011;17813;0.000;0.000;2022-07-22T02:38:10;5.63;;;5.03;;
31182;SDS011;17813;0.000;0.000;2022-07-22T02:40:37;5.37;;;4.87;;
31182;SDS011;17813;0.000;0.000;2022-07-22T02:43:05;5.40;;;4.80;;
31182;SDS011;17813;0.000;0.000;2022-07-22T02:45:33;6.60;;;4.73;;
31182;SDS011;17813;0.000;0.000;2022-07-22T02:48:00;5.37;;;4.90;;
31182;SDS011;17813;0.000;0.000;2022-07-22T02:50:27;5.50;;;4.90;;
31182;SDS011;17813;0.000;0.000;2022-07-22T02:52:54;5.37;;;4.83;;
31182;SDS011;17813;0.000;0.000;2022-07-22T02:55:21;4.90;;;4.40;;
31182;SDS011;17813;0.000;0.000;2022-07-22T02:57:48;5.87;;;5.10;;
31182;SDS011;17813;0.000;0.000;2022-07-22T03:00:15;5.43;;;4.93;;
31182;SDS011;17813;0.000;0.000;2022-07-22T03:02:43;5.57;;;4.90;;
31182;SDS011;17813;0.000;0.000;2022-07-22T03:05:09;7.73;;;5.10;;
31182;SDS011;17813;0.000;0.000;2022-07-22T03:07:38;5.70;;;5.10;;
31182;SDS011;17813;0.000;0.000;2022-07-22T03:10:05;7.87;;;4.53;;
31182;SDS011;17813;0.000;0.000;2022-07-22T03:12:34;5.57;;;5.07;;
31182;SDS011;17813;0.000;0.000;2022-07-22T03:15:00;5.53;;;5.03;;
31182;SDS011;17813;0.000;0.000;2022-07-22T03:17:28;6.60;;;4.90;;
31182;SDS011;17813;0.000;0.000;2022-07-22T03:19:58;5.73;;;5.03;;
31182;SDS011;17813;0.000;0.000;2022-07-22T03:22:32;7.63;;;6.60;;
31182;SDS011;17813;0.000;0.000;2022-07-22T03:24:59;5.63;;;5.10;;
31182;SDS011;17813;0.000;0.000;2022-07-22T03:27:29;6.33;;;5.73;;
31182;SDS011;17813;0.000;0.000;2022-07-22T03:29:57;6.33;;;5.73;;
31182;SDS011;17813;0.000;0.000;2022-07-22T03:32:24;6.47;;;5.20;;
31182;SDS011;17813;0.000;0.000;2022-07-22T03:34:52;7.60;;;5.33;;
31182;SDS011;17813;0.000;0.000;2022-07-22T03:37:19;7.17;;;6.00;;
31182;SDS011;17813;0.000;0.000;2022-07-22T03:39:46;6.00;;;5.47;;
31182;SDS011;17813;0.000;0.000;2022-07-22T03:42:13;6.13;;;5.53;;
31182;SDS011;17813;0.000;0.000;2022-07-22T03:44:43;5.63;;;5.10;;
31182;SDS011;17813;0.000;0.000;2022-07-22T03:47:19;8.10;;;5.50;;
31182;SDS011;17813;0.000;0.000;2022-07-22T03:49:48;6.83;;;5.90;;
31182;SDS011;17813;0.000;0.000;2022-07-22T03:52:16;8.07;;;5.80;;
31182;SDS011;17813;0.000;0.000;2022-07-22T03:54:44;8.47;;;5.90;;
31182;SDS011;17813;0.000;0.000;2022-07-22T03:57:11;6.50;;;5.70;;
31182;SDS011;17813;0.000;0.000;2022-07-22T03:59:38;6.43;;;5.53;;
31182;SDS011;17813;0.000;0.000;2022-07-22T04:02:05;5.93;;;5.17;;
31182;SDS011;17813;0.000;0.000;2022-07-22T04:04:32;6.03;;;5.33;;
31182;SDS011;17813;0.000;0.000;2022-07-22T04:06:59;6.30;;;5.70;;
31182;SDS011;17813;0.000;0.000;2022-07-22T04:09:25;8.17;;;6.00;;
31182;SDS011;17813;0.000;0.000;2022-07-22T04:11:52;10.00;;;5.60;;
31182;SDS011;17813;0.000;0.000;2022-07-22T04:14:20;7.83;;;5.70;;
31182;SDS011;17813;0.000;0.000;2022-07-22T04:16:47;6.27;;;5.60;;
31182;SDS011;17813;0.000;0.000;2022-07-22T04:19:14;6.40;;;5.80;;
31182;SDS011;17813;0.000;0.000;2022-07-22T04:21:41;6.40;;;5.80;;
31182;SDS011;17813;0.000;0.000;2022-07-22T04:24:08;6.43;;;5.83;;
31182;SDS011;17813;0.000;0.000;2022-07-22T04:26:35;6.53;;;5.87;;
31182;SDS011;17813;0.000;0.000;2022-07-22T04:29:03;8.37;;;5.80;;
31182;SDS011;17813;0.000;0.000;2022-07-22T04:31:30;6.20;;;5.70;;
31182;SDS011;17813;0.000;0.000;2022-07-22T04:33:58;6.37;;;5.77;;
31182;SDS011;17813;0.000;0.000;2022-07-22T04:36:25;6.10;;;5.60;;
31182;SDS011;17813;0.000;0.000;2022-07-22T04:38:52;6.30;;;5.70;;
31182;SDS011;17813;0.000;0.000;2022-07-22T04:41:19;6.13;;;5.63;;
31182;SDS011;17813;0.000;0.000;2022-07-22T04:43:46;5.83;;;5.30;;
31182;SDS011;17813;0.000;0.000;2022-07-22T04:46:14;6.10;;;5.60;;
31182;SDS011;17813;0.000;0.000;2022-07-22T04:48:44;6.93;;;6.23;;
31182;SDS011;17813;0.000;0.000;2022-07-22T04:51:11;7.93;;;6.60;;
31182;SDS011;17813;0.000;0.000;2022-07-22T04:53:38;7.43;;;6.50;;
31182;SDS011;17813;0.000;0.000;2022-07-22T04:56:07;9.10;;;6.95;;
31182;SDS011;17813;0.000;0.000;2022-07-22T04:58:34;7.10;;;6.43;;
31182;SDS011;17813;0.000;0.000;2022-07-22T05:01:01;7.68;;;6.60;;
31182;SDS011;17813;0.000;0.000;2022-07-22T05:03:28;10.27;;;7.38;;
31182;SDS011;17813;0.000;0.000;2022-07-22T05:05:56;7.97;;;6.40;;
31182;SDS011;17813;0.000;0.000;2022-07-22T05:08:23;6.60;;;6.00;;
31182;SDS011;17813;0.000;0.000;2022-07-22T05:10:50;6.75;;;6.05;;
31182;SDS011;17813;0.000;0.000;2022-07-22T05:13:17;5.95;;;5.45;;
31182;SDS011;17813;0.000;0.000;2022-07-22T05:15:43;6.22;;;5.68;;
31182;SDS011;17813;0.000;0.000;2022-07-22T05:18:12;6.57;;;5.40;;
31182;SDS011;17813;0.000;0.000;2022-07-22T05:20:39;6.32;;;5.40;;
31182;SDS011;17813;0.000;0.000;2022-07-22T05:23:06;5.80;;;5.30;;
31182;SDS011;17813;0.000;0.000;2022-07-22T05:25:33;5.82;;;5.32;;
31182;SDS011;17813;0.000;0.000;2022-07-22T05:28:00;6.32;;;5.72;;
31182;SDS011;17813;0.000;0.000;2022-07-22T05:30:27;6.20;;;5.28;;
31182;SDS011;17813;0.000;0.000;2022-07-22T05:32:54;6.10;;;5.50;;
31182;SDS011;17813;0.000;0.000;2022-07-22T05:35:21;6.97;;;5.88;;
31182;SDS011;17813;0.000;0.000;2022-07-22T05:37:49;6.03;;;5.53;;
31182;SDS011;17813;0.000;0.000;2022-07-22T05:40:16;5.90;;;5.40;;
31182;SDS011;17813;0.000;0.000;2022-07-22T05:42:46;6.00;;;5.50;;
31182;SDS011;17813;0.000;0.000;2022-07-22T05:45:13;5.30;;;4.80;;
31182;SDS011;17813;0.000;0.000;2022-07-22T05:47:40;5.57;;;5.18;;
31182;SDS011;17813;0.000;0.000;2022-07-22T05:50:07;5.55;;;5.05;;
31182;SDS011;17813;0.000;0.000;2022-07-22T05:52:38;5.10;;;4.57;;
31182;SDS011;17813;0.000;0.000;2022-07-22T05:55:05;4.78;;;4.47;;
31182;SDS011;17813;0.000;0.000;2022-07-22T05:57:33;4.60;;;4.30;;
31182;SDS011;17813;0.000;0.000;2022-07-22T06:00:00;5.00;;;4.60;;
31182;SDS011;17813;0.000;0.000;2022-07-22T06:02:29;4.63;;;4.28;;
31182;SDS011;17813;0.000;0.000;2022-07-22T06:04:57;3.90;;;3.60;;
31182;SDS011;17813;0.000;0.000;2022-07-22T06:07:26;3.95;;;3.42;;
31182;SDS011;17813;0.000;0.000;2022-07-22T06:09:54;3.67;;;3.38;;
31182;SDS011;17813;0.000;0.000;2022-07-22T06:12:21;3.10;;;2.90;;
31182;SDS011;17813;0.000;0.000;2022-07-22T06:14:48;3.30;;;2.78;;
31182;SDS011;17813;0.000;0.000;2022-07-22T06:17:15;2.58;;;2.38;;
31182;SDS011;17813;0.000;0.000;2022-07-22T06:19:42;2.67;;;2.47;;
31182;SDS011;17813;0.000;0.000;2022-07-22T06:22:09;2.53;;;2.33;;
31182;SDS011;17813;0.000;0.000;2022-07-22T06:24:36;2.65;;;2.45;;
31182;SDS011;17813;0.000;0.000;2022-07-22T06:27:03;3.05;;;2.60;;
31182;SDS011;17813;0.000;0.000;2022-07-22T06:29:30;2.75;;;2.42;;
31182;SDS011;17813;0.000;0.000;2022-07-22T06:31:57;2.50;;;2.30;;
31182;SDS011;17813;0.000;0.000;2022-07-22T06:34:24;2.13;;;2.03;;
31182;SDS011;17813;0.000;0.000;2022-07-22T06:36:52;2.30;;;2.15;;
31182;SDS011;17813;0.000;0.000;2022-07-22T06:39:19;2.20;;;2.10;;
31182;SDS011;17813;0.000;0.000;2022-07-22T06:41:47;2.78;;;2.08;;
31182;SDS011;17813;0.000;0.000;2022-07-22T06:44:13;2.50;;;2.30;;
31182;SDS011;17813;0.000;0.000;2022-07-22T06:46:41;2.20;;;2.10;;
31182;SDS011;17813;0.000;0.000;2022-07-22T06:49:08;5.07;;;2.35;;
31182;SDS011;17813;0.000;0.000;2022-07-22T06:51:36;2.40;;;2.17;;
31182;SDS011;17813;0.000;0.000;2022-07-22T06:54:06;2.60;;;2.40;;
31182;SDS011;17813;0.000;0.000;2022-07-22T06:56:38;2.80;;;2.60;;
31182;SDS011;17813;0.000;0.000;2022-07-22T06:59:05;2.80;;;2.60;;
31182;SDS011;17813;0.000;0.000;2022-07-22T07:01:34;3.00;;;2.80;;
31182;SDS011;17813;0.000;0.000;2022-07-22T07:04:01;2.80;;;2.60;;
31182;SDS011;17813;0.000;0.000;2022-07-22T07:06:29;2.80;;;2.60;;
31182;SDS011;17813;0.000;0.000;2022-07-22T07:08:58;2.92;;;2.72;;
31182;SDS011;17813;0.000;0.000;2022-07-22T07:11:25;3.00;;;2.70;;
31182;SDS011;17813;0.000;0.000;2022-07-22T07:13:53;4.13;;;2.38;;
31182;SDS011;17813;0.000;0.000;2022-07-22T07:16:20;2.83;;;2.60;;
31182;SDS011;17813;0.000;0.000;2022-07-22T07:18:47;2.75;;;2.55;;
31182;SDS011;17813;0.000;0.000;2022-07-22T07:21:22;3.60;;;2.65;;
31182;SDS011;17813;0.000;0.000;2022-07-22T07:23:49;3.00;;;2.60;;
31182;SDS011;17813;0.000;0.000;2022-07-22T07:29:11;2.42;;;2.30;;
31182;SDS011;17813;0.000;0.000;2022-07-22T07:31:39;2.40;;;2.20;;
31182;SDS011;17813;0.000;0.000;2022-07-22T07:34:06;2.90;;;2.70;;
31182;SDS011;17813;0.000;0.000;2022-07-22T07:36:32;2.72;;;2.53;;
31182;SDS011;17813;0.000;0.000;2022-07-22T07:39:01;2.60;;;2.40;;
31182;SDS011;17813;0.000;0.000;2022-07-22T07:41:28;2.33;;;2.22;;
31182;SDS011;17813;0.000;0.000;2022-07-22T07:43:55;2.58;;;2.38;;
31182;SDS011;17813;0.000;0.000;2022-07-22T07:46:22;2.38;;;2.20;;
31182;SDS011;17813;0.000;0.000;2022-07-22T07:48:51;2.50;;;2.30;;
31182;SDS011;17813;0.000;0.000;2022-07-22T07:51:21;2.50;;;2.30;;
31182;SDS011;17813;0.000;0.000;2022-07-22T07:53:52;2.42;;;2.33;;
31182;SDS011;17813;0.000;0.000;2022-07-22T07:56:20;2.60;;;2.40;;
31182;SDS011;17813;0.000;0.000;2022-07-22T07:58:48;2.65;;;2.47;;
31182;SDS011;17813;0.000;0.000;2022-07-22T08:01:17;2.38;;;2.22;;
31182;SDS011;17813;0.000;0.000;2022-07-22T08:03:44;2.60;;;2.40;;
31182;SDS011;17813;0.000;0.000;2022-07-22T08:06:11;2.25;;;2.05;;
31182;SDS011;17813;0.000;0.000;2022-07-22T08:08:39;2.70;;;2.50;;
31182;SDS011;17813;0.000;0.000;2022-07-22T08:11:06;2.60;;;2.40;;
31182;SDS011;17813;0.000;0.000;2022-07-22T08:13:33;2.70;;;2.50;;
31182;SDS011;17813;0.000;0.000;2022-07-22T08:16:01;2.72;;;2.53;;
31182;SDS011;17813;0.000;0.000;2022-07-22T08:18:29;2.42;;;2.22;;
31182;SDS011;17813;0.000;0.000;2022-07-22T08:20:56;2.20;;;2.10;;
31182;SDS011;17813;0.000;0.000;2022-07-22T08:23:23;2.55;;;2.35;;
31182;SDS011;17813;0.000;0.000;2022-07-22T08:25:50;2.65;;;2.45;;
31182;SDS011;17813;0.000;0.000;2022-07-22T08:28:18;2.50;;;2.30;;
31182;SDS011;17813;0.000;0.000;2022-07-22T08:30:46;3.25;;;2.53;;
31182;SDS011;17813;0.000;0.000;2022-07-22T08:33:13;2.70;;;2.50;;
31182;SDS011;17813;0.000;0.000;2022-07-22T08:35:43;2.88;;;2.63;;
31182;SDS011;17813;0.000;0.000;2022-07-22T08:38:13;2.35;;;2.15;;
31182;SDS011;17813;0.000;0.000;2022-07-22T08:40:41;2.55;;;2.35;;
31182;SDS011;17813;0.000;0.000;2022-07-22T08:43:10;2.42;;;2.30;;
31182;SDS011;17813;0.000;0.000;2022-07-22T08:45:36;2.55;;;2.35;;
31182;SDS011;17813;0.000;0.000;2022-07-22T08:48:08;2.42;;;2.20;;
31182;SDS011;17813;0.000;0.000;2022-07-22T08:50:36;2.40;;;2.20;;
31182;SDS011;17813;0.000;0.000;2022-07-22T08:53:03;2.45;;;2.25;;
31182;SDS011;17813;0.000;0.000;2022-07-22T08:55:34;2.65;;;2.45;;
31182;SDS011;17813;0.000;0.000;2022-07-22T08:58:10;2.72;;;2.60;;
31182;SDS011;17813;0.000;0.000;2022-07-22T09:00:39;2.40;;;2.30;;
31182;SDS011;17813;0.000;0.000;2022-07-22T09:03:17;2.53;;;2.38;;
31182;SDS011;17813;0.000;0.000;2022-07-22T09:05:48;2.63;;;2.42;;
31182;SDS011;17813;0.000;0.000;2022-07-22T09:08:16;2.50;;;2.40;;
31182;SDS011;17813;0.000;0.000;2022-07-22T09:10:43;2.67;;;2.47;;
31182;SDS011;17813;0.000;0.000;2022-07-22T09:13:12;2.47;;;2.28;;
31182;SDS011;17813;0.000;0.000;2022-07-22T09:15:49;2.47;;;2.38;;
31182;SDS011;17813;0.000;0.000;2022-07-22T09:18:20;2.50;;;2.30;;
31182;SDS011;17813;0.000;0.000;2022-07-22T09:20:47;2.30;;;2.15;;
31182;SDS011;17813;0.000;0.000;2022-07-22T09:23:16;2.60;;;2.40;;
31182;SDS011;17813;0.000;0.000;2022-07-22T09:25:46;2.58;;;2.40;;
31182;SDS011;17813;0.000;0.000;2022-07-22T09:28:14;2.50;;;2.30;;
31182;SDS011;17813;0.000;0.000;2022-07-22T09:30:46;2.45;;;2.28;;
31182;SDS011;17813;0.000;0.000;2022-07-22T09:33:16;2.60;;;2.40;;
31182;SDS011;17813;0.000;0.000;2022-07-22T09:35:44;2.50;;;2.30;;
31182;SDS011;17813;0.000;0.000;2022-07-22T09:38:13;2.60;;;2.40;;
31182;SDS011;17813;0.000;0.000;2022-07-22T09:40:42;2.50;;;2.30;;
31182;SDS011;17813;0.000;0.000;2022-07-22T09:43:15;3.33;;;2.40;;
31182;SDS011;17813;0.000;0.000;2022-07-22T09:45:51;2.40;;;2.30;;
31182;SDS011;17813;0.000;0.000;2022-07-22T09:48:20;2.85;;;2.47;;
31182;SDS011;17813;0.000;0.000;2022-07-22T09:50:48;2.83;;;2.63;;
31182;SDS011;17813;0.000;0.000;2022-07-22T09:53:19;2.40;;;2.20;;
31182;SDS011;17813;0.000;0.000;2022-07-22T09:55:52;2.63;;;2.40;;
31182;SDS011;17813;0.000;0.000;2022-07-22T09:58:22;2.55;;;2.40;;
31182;SDS011;17813;0.000;0.000;2022-07-22T10:00:50;2.60;;;2.40;;
31182;SDS011;17813;0.000;0.000;2022-07-22T10:03:27;2.22;;;2.13;;
31182;SDS011;17813;0.000;0.000;2022-07-22T10:05:56;2.22;;;2.00;;
31182;SDS011;17813;0.000;0.000;2022-07-22T10:08:30;2.15;;;2.05;;
31182;SDS011;17813;0.000;0.000;2022-07-22T10:10:59;2.63;;;2.42;;
31182;SDS011;17813;0.000;0.000;2022-07-22T10:13:30;2.40;;;2.30;;
31182;SDS011;17813;0.000;0.000;2022-07-22T10:15:59;2.70;;;2.50;;
31182;SDS011;17813;0.000;0.000;2022-07-22T10:18:28;2.83;;;2.63;;
31182;SDS011;17813;0.000;0.000;2022-07-22T10:21:06;2.88;;;2.67;;
31182;SDS011;17813;0.000;0.000;2022-07-22T10:26:55;2.67;;;2.47;;
31182;SDS011;17813;0.000;0.000;2022-07-22T10:29:41;3.00;;;2.65;;
31182;SDS011;17813;0.000;0.000;2022-07-22T10:40:10;2.30;;;2.10;;
31182;SDS011;17813;0.000;0.000;2022-07-22T10:45:44;2.17;;;2.00;;
31182;SDS011;17813;0.000;0.000;2022-07-22T10:48:14;2.17;;;1.98;;
31182;SDS011;17813;0.000;0.000;2022-07-22T10:51:04;2.25;;;2.05;;
31182;SDS011;17813;0.000;0.000;2022-07-22T10:56:17;2.47;;;2.28;;
31182;SDS011;17813;0.000;0.000;2022-07-22T10:58:54;3.13;;;2.15;;
31182;SDS011;17813;0.000;0.000;2022-07-22T11:01:39;2.30;;;2.10;;
31182;SDS011;17813;0.000;0.000;2022-07-22T11:04:15;2.50;;;2.30;;
31182;SDS011;17813;0.000;0.000;2022-07-22T11:06:49;2.83;;;2.63;;
31182;SDS011;17813;0.000;0.000;2022-07-22T11:09:21;2.60;;;2.40;;
31182;SDS011;17813;0.000;0.000;2022-07-22T11:11:56;2.53;;;2.33;;
31182;SDS011;17813;0.000;0.000;2022-07-22T11:17:04;2.33;;;2.22;;
31182;SDS011;17813;0.000;0.000;2022-07-22T11:19:32;3.33;;;2.15;;
31182;SDS011;17813;0.000;0.000;2022-07-22T11:22:12;2.60;;;2.40;;
31182;SDS011;17813;0.000;0.000;2022-07-22T11:24:43;2.67;;;2.50;;
31182;SDS011;17813;0.000;0.000;2022-07-22T11:27:15;2.65;;;2.45;;
31182;SDS011;17813;0.000;0.000;2022-07-22T11:29:47;2.75;;;2.10;;
31182;SDS011;17813;0.000;0.000;2022-07-22T11:32:16;2.83;;;2.60;;
31182;SDS011;17813;0.000;0.000;2022-07-22T11:34:45;2.58;;;2.38;;
31182;SDS011;17813;0.000;0.000;2022-07-22T11:37:20;2.60;;;2.40;;
31182;SDS011;17813;0.000;0.000;2022-07-22T11:39:54;2.60;;;2.40;;
31182;SDS011;17813;0.000;0.000;2022-07-22T11:42:26;2.25;;;2.15;;
31182;SDS011;17813;0.000;0.000;2022-07-22T11:44:53;2.30;;;2.20;;
31182;SDS011;17813;0.000;0.000;2022-07-22T11:47:20;2.47;;;2.30;;
31182;SDS011;17813;0.000;0.000;2022-07-22T11:49:48;2.97;;;2.38;;
31182;SDS011;17813;0.000;0.000;2022-07-22T11:52:16;2.78;;;2.58;;
31182;SDS011;17813;0.000;0.000;2022-07-22T11:54:43;2.80;;;2.60;;
31182;SDS011;17813;0.000;0.000;2022-07-22T11:57:12;4.25;;;2.60;;
31182;SDS011;17813;0.000;0.000;2022-07-22T11:59:40;3.08;;;2.55;;
31182;SDS011;17813;0.000;0.000;2022-07-22T12:02:07;2.80;;;2.60;;
31182;SDS011;17813;0.000;0.000;2022-07-22T12:04:49;3.47;;;2.70;;
31182;SDS011;17813;0.000;0.000;2022-07-22T12:07:19;2.70;;;2.50;;
31182;SDS011;17813;0.000;0.000;2022-07-22T12:09:59;2.80;;;2.60;;
31182;SDS011;17813;0.000;0.000;2022-07-22T12:12:40;3.90;;;2.80;;
31182;SDS011;17813;0.000;0.000;2022-07-22T12:15:09;2.47;;;2.28;;
31182;SDS011;17813;0.000;0.000;2022-07-22T12:17:37;2.78;;;2.58;;
31182;SDS011;17813;0.000;0.000;2022-07-22T12:20:12;3.00;;;2.80;;
31182;SDS011;17813;0.000;0.000;2022-07-22T12:22:51;2.85;;;2.60;;
31182;SDS011;17813;0.000;0.000;2022-07-22T12:25:19;2.60;;;2.40;;
31182;SDS011;17813;0.000;0.000;2022-07-22T12:27:59;2.65;;;2.45;;
31182;SDS011;17813;0.000;0.000;2022-07-22T12:30:27;2.70;;;2.50;;
31182;SDS011;17813;0.000;0.000;2022-07-22T12:32:54;3.15;;;2.60;;
31182;SDS011;17813;0.000;0.000;2022-07-22T12:35:25;2.70;;;2.50;;
31182;SDS011;17813;0.000;0.000;2022-07-22T12:38:05;2.50;;;2.35;;
31182;SDS011;17813;0.000;0.000;2022-07-22T12:40:38;3.20;;;2.90;;
31182;SDS011;17813;0.000;0.000;2022-07-22T12:43:06;2.88;;;2.67;;
31182;SDS011;17813;0.000;0.000;2022-07-22T12:45:34;2.90;;;2.70;;
31182;SDS011;17813;0.000;0.000;2022-07-22T12:53:00;2.53;;;2.33;;
31182;SDS011;17813;0.000;0.000;2022-07-22T12:55:33;2.78;;;2.58;;
31182;SDS011;17813;0.000;0.000;2022-07-22T12:58:08;2.60;;;2.40;;
31182;SDS011;17813;0.000;0.000;2022-07-22T13:00:37;2.78;;;2.58;;
31182;SDS011;17813;0.000;0.000;2022-07-22T13:03:08;2.90;;;2.65;;
31182;SDS011;17813;0.000;0.000;2022-07-22T13:05:36;2.65;;;2.45;;
31182;SDS011;17813;0.000;0.000;2022-07-22T13:08:03;3.20;;;2.90;;
31182;SDS011;17813;0.000;0.000;2022-07-22T13:10:31;2.97;;;2.63;;
31182;SDS011;17813;0.000;0.000;2022-07-22T13:13:00;2.80;;;2.60;;
31182;SDS011;17813;0.000;0.000;2022-07-22T13:15:28;2.80;;;2.60;;
31182;SDS011;17813;0.000;0.000;2022-07-22T13:17:58;3.78;;;2.75;;
31182;SDS011;17813;0.000;0.000;2022-07-22T13:20:25;2.95;;;2.67;;
31182;SDS011;17813;0.000;0.000;2022-07-22T13:22:52;2.83;;;2.60;;
31182;SDS011;17813;0.000;0.000;2022-07-22T13:25:20;2.67;;;2.47;;
31182;SDS011;17813;0.000;0.000;2022-07-22T13:27:48;2.70;;;2.50;;
31182;SDS011;17813;0.000;0.000;2022-07-22T13:30:29;2.83;;;2.63;;
31182;SDS011;17813;0.000;0.000;2022-07-22T13:32:56;2.83;;;2.63;;
31182;SDS011;17813;0.000;0.000;2022-07-22T13:35:23;2.90;;;2.70;;
31182;SDS011;17813;0.000;0.000;2022-07-22T13:37:51;3.15;;;2.85;;
31182;SDS011;17813;0.000;0.000;2022-07-22T13:40:19;3.88;;;3.10;;
31182;SDS011;17813;0.000;0.000;2022-07-22T13:42:52;3.05;;;2.55;;
31182;SDS011;17813;0.000;0.000;2022-07-22T13:45:22;4.05;;;3.13;;
31182;SDS011;17813;0.000;0.000;2022-07-22T13:47:49;3.88;;;2.67;;
31182;SDS011;17813;0.000;0.000;2022-07-22T13:50:16;3.15;;;2.85;;
31182;SDS011;17813;0.000;0.000;2022-07-22T13:52:43;2.88;;;2.67;;
31182;SDS011;17813;0.000;0.000;2022-07-22T13:55:12;2.70;;;2.50;;
31182;SDS011;17813;0.000;0.000;2022-07-22T13:57:40;3.13;;;2.70;;
31182;SDS011;17813;0.000;0.000;2022-07-22T14:00:08;2.95;;;2.70;;
31182;SDS011;17813;0.000;0.000;2022-07-22T14:02:45;2.83;;;2.63;;
31182;SDS011;17813;0.000;0.000;2022-07-22T14:05:12;3.70;;;2.70;;
31182;SDS011;17813;0.000;0.000;2022-07-22T14:07:40;2.90;;;2.70;;
31182;SDS011;17813;0.000;0.000;2022-07-22T14:10:09;2.90;;;2.70;;
31182;SDS011;17813;0.000;0.000;2022-07-22T14:12:38;3.03;;;2.72;;
31182;SDS011;17813;0.000;0.000;2022-07-22T14:15:10;3.40;;;2.90;;
31182;SDS011;17813;0.000;0.000;2022-07-22T14:17:48;3.20;;;2.88;;
31182;SDS011;17813;0.000;0.000;2022-07-22T14:20:27;3.40;;;3.10;;
31182;SDS011;17813;0.000;0.000;2022-07-22T14:22:54;2.90;;;2.70;;
31182;SDS011;17813;0.000;0.000;2022-07-22T14:25:22;2.90;;;2.70;;
31182;SDS011;17813;0.000;0.000;2022-07-22T14:27:53;3.30;;;3.00;;
31182;SDS011;17813;0.000;0.000;2022-07-22T14:30:24;4.43;;;2.90;;
31182;SDS011;17813;0.000;0.000;2022-07-22T14:32:54;2.88;;;2.67;;
31182;SDS011;17813;0.000;0.000;2022-07-22T14:35:21;3.15;;;2.92;;
31182;SDS011;17813;0.000;0.000;2022-07-22T14:37:49;2.92;;;2.72;;
31182;SDS011;17813;0.000;0.000;2022-07-22T14:40:16;3.22;;;2.90;;
31182;SDS011;17813;0.000;0.000;2022-07-22T14:42:43;2.85;;;2.65;;
31182;SDS011;17813;0.000;0.000;2022-07-22T14:45:11;6.15;;;3.10;;
31182;SDS011;17813;0.000;0.000;2022-07-22T14:47:44;2.70;;;2.50;;
31182;SDS011;17813;0.000;0.000;2022-07-22T14:50:11;3.10;;;2.88;;
31182;SDS011;17813;0.000;0.000;2022-07-22T14:52:39;3.20;;;2.90;;
31182;SDS011;17813;0.000;0.000;2022-07-22T14:55:09;3.00;;;2.80;;
31182;SDS011;17813;0.000;0.000;2022-07-22T14:57:37;3.20;;;2.90;;
31182;SDS011;17813;0.000;0.000;2022-07-22T15:00:04;4.78;;;2.95;;
31182;SDS011;17813;0.000;0.000;2022-07-22T15:02:35;3.20;;;2.90;;
31182;SDS011;17813;0.000;0.000;2022-07-22T15:05:05;3.10;;;2.90;;
31182;SDS011;17813;0.000;0.000;2022-07-22T15:07:32;3.40;;;3.10;;
31182;SDS011;17813;0.000;0.000;2022-07-22T15:10:00;2.97;;;2.78;;
31182;SDS011;17813;0.000;0.000;2022-07-22T15:12:34;2.90;;;2.70;;
31182;SDS011;17813;0.000;0.000;2022-07-22T15:15:01;3.50;;;3.20;;
31182;SDS011;17813;0.000;0.000;2022-07-22T15:17:38;2.92;;;2.72;;
31182;SDS011;17813;0.000;0.000;2022-07-22T15:20:12;2.90;;;2.70;;
31182;SDS011;17813;0.000;0.000;2022-07-22T15:22:39;2.80;;;2.58;;
31182;SDS011;17813;0.000;0.000;2022-07-22T15:25:07;3.40;;;2.50;;
31182;SDS011;17813;0.000;0.000;2022-07-22T15:27:34;3.95;;;2.58;;
31182;SDS011;17813;0.000;0.000;2022-07-22T15:30:04;3.00;;;2.80;;
31182;SDS011;17813;0.000;0.000;2022-07-22T15:32:32;2.70;;;2.50;;
31182;SDS011;17813;0.000;0.000;2022-07-22T15:34:59;2.85;;;2.58;;
31182;SDS011;17813;0.000;0.000;2022-07-22T15:37:25;3.03;;;2.83;;